sensor_id;sensor_type;location;lat;lon;timestamp;P1;durP1;ratioP1;P2;durP2;ratioP2
19889;SDS011;10107;51.198;6.824;2022-09-09T00:01:42;2.47;;;1.00;;
19889;SDS011;10107;51.198;6.824;2022-09-09T00:05:52;2.15;;;0.90;;
19889;SDS011;10107;51.198;6.824;2022-09-09T00:10:03;3.67;;;1.30;;
19889;SDS011;10107;51.198;6.824;2022-09-09T00:14:20;4.25;;;1.80;;
19889;SDS011;10107;51.198;6.824;2022-09-09T00:18:29;3.92;;;1.95;;
19889;SDS011;10107;51.198;6.824;2022-09-09T00:22:39;7.13;;;3.70;;
19889;SDS011;10107;51.198;6.824;2022-09-09T00:26:48;8.02;;;4.00;;
19889;SDS011;10107;51.198;6.824;2022-09-09T00:30:55;8.95;;;3.97;;
19889;SDS011;10107;51.198;6.824;2022-09-09T00:35:03;8.00;;;3.85;;
19889;SDS011;10107;51.198;6.824;2022-09-09T00:39:20;10.07;;;5.38;;
19889;SDS011;10107;51.198;6.824;2022-09-09T00:43:27;10.90;;;6.20;;
19889;SDS011;10107;51.198;6.824;2022-09-09T00:51:56;13.73;;;8.95;;
19889;SDS011;10107;51.198;6.824;2022-09-09T00:56:09;16.00;;;8.63;;
19889;SDS011;10107;51.198;6.824;2022-09-09T01:00:24;15.02;;;9.05;;
19889;SDS011;10107;51.198;6.824;2022-09-09T01:04:30;17.20;;;10.48;;
19889;SDS011;10107;51.198;6.824;2022-09-09T01:08:39;11.90;;;6.78;;
19889;SDS011;10107;51.198;6.824;2022-09-09T01:12:52;8.02;;;3.70;;
19889;SDS011;10107;51.198;6.824;2022-09-09T01:16:59;4.05;;;2.20;;
19889;SDS011;10107;51.198;6.824;2022-09-09T01:21:13;3.17;;;1.35;;
19889;SDS011;10107;51.198;6.824;2022-09-09T01:25:29;1.92;;;1.10;;
19889;SDS011;10107;51.198;6.824;2022-09-09T01:29:56;1.60;;;0.98;;
19889;SDS011;10107;51.198;6.824;2022-09-09T01:34:02;1.73;;;1.10;;
19889;SDS011;10107;51.198;6.824;2022-09-09T01:38:11;2.28;;;1.05;;
19889;SDS011;10107;51.198;6.824;2022-09-09T01:42:14;2.95;;;1.00;;
19889;SDS011;10107;51.198;6.824;2022-09-09T01:46:19;2.70;;;0.90;;
19889;SDS011;10107;51.198;6.824;2022-09-09T01:50:23;2.42;;;1.02;;
19889;SDS011;10107;51.198;6.824;2022-09-09T01:54:26;1.85;;;1.00;;
19889;SDS011;10107;51.198;6.824;2022-09-09T01:58:37;2.88;;;1.00;;
19889;SDS011;10107;51.198;6.824;2022-09-09T02:02:52;2.60;;;0.93;;
19889;SDS011;10107;51.198;6.824;2022-09-09T02:07:14;1.80;;;0.90;;
19889;SDS011;10107;51.198;6.824;2022-09-09T02:11:31;2.83;;;0.90;;
19889;SDS011;10107;51.198;6.824;2022-09-09T02:15:44;1.73;;;1.10;;
19889;SDS011;10107;51.198;6.824;2022-09-09T02:19:53;2.05;;;0.90;;
19889;SDS011;10107;51.198;6.824;2022-09-09T02:24:13;1.45;;;1.00;;
19889;SDS011;10107;51.198;6.824;2022-09-09T02:28:23;3.08;;;1.17;;
19889;SDS011;10107;51.198;6.824;2022-09-09T02:32:27;2.30;;;1.00;;
19889;SDS011;10107;51.198;6.824;2022-09-09T02:36:34;2.55;;;1.00;;
19889;SDS011;10107;51.198;6.824;2022-09-09T02:40:38;1.20;;;0.80;;
19889;SDS011;10107;51.198;6.824;2022-09-09T02:44:40;1.98;;;0.80;;
19889;SDS011;10107;51.198;6.824;2022-09-09T02:48:45;1.80;;;0.90;;
19889;SDS011;10107;51.198;6.824;2022-09-09T02:52:57;2.63;;;1.00;;
19889;SDS011;10107;51.198;6.824;2022-09-09T02:57:08;2.03;;;1.02;;
19889;SDS011;10107;51.198;6.824;2022-09-09T03:01:14;1.23;;;0.88;;
19889;SDS011;10107;51.198;6.824;2022-09-09T03:05:17;1.50;;;0.73;;
19889;SDS011;10107;51.198;6.824;2022-09-09T03:09:21;1.10;;;0.90;;
19889;SDS011;10107;51.198;6.824;2022-09-09T03:13:24;2.55;;;0.98;;
19889;SDS011;10107;51.198;6.824;2022-09-09T03:17:26;2.17;;;0.70;;
19889;SDS011;10107;51.198;6.824;2022-09-09T03:21:29;2.50;;;1.00;;
19889;SDS011;10107;51.198;6.824;2022-09-09T03:25:34;2.03;;;1.02;;
19889;SDS011;10107;51.198;6.824;2022-09-09T03:29:36;1.77;;;1.00;;
19889;SDS011;10107;51.198;6.824;2022-09-09T03:33:41;2.70;;;1.02;;
19889;SDS011;10107;51.198;6.824;2022-09-09T03:37:47;1.83;;;1.13;;
19889;SDS011;10107;51.198;6.824;2022-09-09T03:41:51;2.85;;;1.17;;
19889;SDS011;10107;51.198;6.824;2022-09-09T03:45:54;1.83;;;1.08;;
19889;SDS011;10107;51.198;6.824;2022-09-09T03:49:58;1.92;;;1.00;;
19889;SDS011;10107;51.198;6.824;2022-09-09T03:54:00;2.05;;;0.98;;
19889;SDS011;10107;51.198;6.824;2022-09-09T03:58:03;2.42;;;1.20;;
19889;SDS011;10107;51.198;6.824;2022-09-09T04:02:05;1.67;;;1.00;;
19889;SDS011;10107;51.198;6.824;2022-09-09T04:06:08;2.25;;;1.10;;
19889;SDS011;10107;51.198;6.824;2022-09-09T04:10:12;4.18;;;1.40;;
19889;SDS011;10107;51.198;6.824;2022-09-09T04:14:19;3.25;;;1.48;;
19889;SDS011;10107;51.198;6.824;2022-09-09T04:22:27;3.80;;;1.55;;
19889;SDS011;10107;51.198;6.824;2022-09-09T04:26:32;4.15;;;1.92;;
19889;SDS011;10107;51.198;6.824;2022-09-09T04:30:36;2.38;;;1.50;;
19889;SDS011;10107;51.198;6.824;2022-09-09T04:34:40;3.33;;;1.55;;
19889;SDS011;10107;51.198;6.824;2022-09-09T04:38:43;2.93;;;1.30;;
19889;SDS011;10107;51.198;6.824;2022-09-09T04:42:46;2.28;;;1.20;;
19889;SDS011;10107;51.198;6.824;2022-09-09T04:46:52;4.93;;;1.42;;
19889;SDS011;10107;51.198;6.824;2022-09-09T04:50:55;3.92;;;1.55;;
19889;SDS011;10107;51.198;6.824;2022-09-09T04:54:58;3.30;;;1.40;;
19889;SDS011;10107;51.198;6.824;2022-09-09T04:59:01;3.92;;;1.70;;
19889;SDS011;10107;51.198;6.824;2022-09-09T05:07:18;3.30;;;1.40;;
19889;SDS011;10107;51.198;6.824;2022-09-09T05:11:21;3.17;;;1.33;;
19889;SDS011;10107;51.198;6.824;2022-09-09T05:15:28;6.78;;;1.95;;
19889;SDS011;10107;51.198;6.824;2022-09-09T05:19:31;2.92;;;1.45;;
19889;SDS011;10107;51.198;6.824;2022-09-09T05:23:33;5.55;;;1.70;;
19889;SDS011;10107;51.198;6.824;2022-09-09T05:27:36;5.15;;;1.45;;
19889;SDS011;10107;51.198;6.824;2022-09-09T05:31:39;4.40;;;1.50;;
19889;SDS011;10107;51.198;6.824;2022-09-09T05:35:46;3.83;;;1.40;;
19889;SDS011;10107;51.198;6.824;2022-09-09T05:39:49;2.83;;;1.35;;
19889;SDS011;10107;51.198;6.824;2022-09-09T05:43:51;5.75;;;1.83;;
19889;SDS011;10107;51.198;6.824;2022-09-09T05:47:54;3.10;;;1.60;;
19889;SDS011;10107;51.198;6.824;2022-09-09T05:51:58;4.15;;;1.48;;
19889;SDS011;10107;51.198;6.824;2022-09-09T06:00:04;3.20;;;1.27;;
19889;SDS011;10107;51.198;6.824;2022-09-09T06:04:14;3.03;;;1.40;;
19889;SDS011;10107;51.198;6.824;2022-09-09T06:08:17;3.58;;;1.77;;
19889;SDS011;10107;51.198;6.824;2022-09-09T06:12:19;2.88;;;1.50;;
19889;SDS011;10107;51.198;6.824;2022-09-09T06:16:22;6.30;;;2.08;;
19889;SDS011;10107;51.198;6.824;2022-09-09T06:20:24;4.85;;;1.63;;
19889;SDS011;10107;51.198;6.824;2022-09-09T06:24:28;3.08;;;1.48;;
19889;SDS011;10107;51.198;6.824;2022-09-09T06:28:31;6.32;;;1.65;;
19889;SDS011;10107;51.198;6.824;2022-09-09T06:32:33;2.28;;;1.40;;
19889;SDS011;10107;51.198;6.824;2022-09-09T06:36:38;3.88;;;1.50;;
19889;SDS011;10107;51.198;6.824;2022-09-09T06:40:42;4.47;;;1.48;;
19889;SDS011;10107;51.198;6.824;2022-09-09T06:44:52;5.30;;;1.70;;
19889;SDS011;10107;51.198;6.824;2022-09-09T06:49:16;4.25;;;1.13;;
19889;SDS011;10107;51.198;6.824;2022-09-09T06:53:18;3.92;;;1.45;;
19889;SDS011;10107;51.198;6.824;2022-09-09T06:57:23;4.63;;;1.05;;
19889;SDS011;10107;51.198;6.824;2022-09-09T07:01:28;2.55;;;1.30;;
19889;SDS011;10107;51.198;6.824;2022-09-09T07:05:35;4.28;;;1.15;;
19889;SDS011;10107;51.198;6.824;2022-09-09T07:09:37;3.55;;;1.05;;
19889;SDS011;10107;51.198;6.824;2022-09-09T07:13:40;4.47;;;1.10;;
19889;SDS011;10107;51.198;6.824;2022-09-09T07:17:42;3.65;;;1.38;;
19889;SDS011;10107;51.198;6.824;2022-09-09T07:21:44;3.90;;;1.10;;
19889;SDS011;10107;51.198;6.824;2022-09-09T07:25:49;4.10;;;1.02;;
19889;SDS011;10107;51.198;6.824;2022-09-09T07:29:55;2.67;;;1.10;;
19889;SDS011;10107;51.198;6.824;2022-09-09T07:33:58;4.93;;;1.10;;
19889;SDS011;10107;51.198;6.824;2022-09-09T07:38:01;5.47;;;0.73;;
19889;SDS011;10107;51.198;6.824;2022-09-09T07:42:05;3.67;;;1.33;;
19889;SDS011;10107;51.198;6.824;2022-09-09T07:46:11;4.35;;;1.10;;
19889;SDS011;10107;51.198;6.824;2022-09-09T07:50:13;3.42;;;1.00;;
19889;SDS011;10107;51.198;6.824;2022-09-09T07:54:17;5.57;;;1.45;;
19889;SDS011;10107;51.198;6.824;2022-09-09T07:58:23;3.38;;;1.27;;
19889;SDS011;10107;51.198;6.824;2022-09-09T08:02:26;4.22;;;1.20;;
19889;SDS011;10107;51.198;6.824;2022-09-09T08:06:31;2.88;;;1.30;;
19889;SDS011;10107;51.198;6.824;2022-09-09T08:10:34;3.03;;;1.15;;
19889;SDS011;10107;51.198;6.824;2022-09-09T08:14:36;5.10;;;1.65;;
19889;SDS011;10107;51.198;6.824;2022-09-09T08:18:39;4.72;;;1.40;;
19889;SDS011;10107;51.198;6.824;2022-09-09T08:22:42;3.70;;;1.30;;
19889;SDS011;10107;51.198;6.824;2022-09-09T08:26:45;3.33;;;1.20;;
19889;SDS011;10107;51.198;6.824;2022-09-09T08:30:49;2.17;;;1.00;;
19889;SDS011;10107;51.198;6.824;2022-09-09T08:34:55;3.65;;;1.00;;
19889;SDS011;10107;51.198;6.824;2022-09-09T08:38:58;5.35;;;1.33;;
19889;SDS011;10107;51.198;6.824;2022-09-09T08:43:00;3.05;;;1.08;;
19889;SDS011;10107;51.198;6.824;2022-09-09T08:47:08;4.43;;;1.10;;
19889;SDS011;10107;51.198;6.824;2022-09-09T08:51:18;5.93;;;1.63;;
19889;SDS011;10107;51.198;6.824;2022-09-09T08:59:27;3.40;;;1.25;;
19889;SDS011;10107;51.198;6.824;2022-09-09T09:03:34;3.75;;;1.00;;
19889;SDS011;10107;51.198;6.824;2022-09-09T09:07:52;2.67;;;0.98;;
19889;SDS011;10107;51.198;6.824;2022-09-09T09:12:08;6.65;;;1.45;;
19889;SDS011;10107;51.198;6.824;2022-09-09T09:16:19;2.13;;;1.10;;
19889;SDS011;10107;51.198;6.824;2022-09-09T09:20:29;4.25;;;1.35;;
19889;SDS011;10107;51.198;6.824;2022-09-09T09:24:45;7.38;;;2.03;;
19889;SDS011;10107;51.198;6.824;2022-09-09T09:28:55;4.28;;;1.48;;
19889;SDS011;10107;51.198;6.824;2022-09-09T09:32:59;3.25;;;1.20;;
19889;SDS011;10107;51.198;6.824;2022-09-09T09:37:12;3.60;;;1.10;;
19889;SDS011;10107;51.198;6.824;2022-09-09T09:41:29;3.53;;;1.10;;
19889;SDS011;10107;51.198;6.824;2022-09-09T09:45:35;3.13;;;1.00;;
19889;SDS011;10107;51.198;6.824;2022-09-09T09:49:50;1.90;;;0.82;;
19889;SDS011;10107;51.198;6.824;2022-09-09T09:53:54;2.45;;;0.98;;
19889;SDS011;10107;51.198;6.824;2022-09-09T09:58:14;2.08;;;0.82;;
19889;SDS011;10107;51.198;6.824;2022-09-09T10:02:18;3.83;;;1.08;;
19889;SDS011;10107;51.198;6.824;2022-09-09T10:06:30;4.47;;;1.20;;
19889;SDS011;10107;51.198;6.824;2022-09-09T10:10:42;3.53;;;1.08;;
19889;SDS011;10107;51.198;6.824;2022-09-09T10:14:56;1.65;;;0.80;;
19889;SDS011;10107;51.198;6.824;2022-09-09T10:19:09;2.22;;;0.90;;
19889;SDS011;10107;51.198;6.824;2022-09-09T10:23:18;2.55;;;0.88;;
19889;SDS011;10107;51.198;6.824;2022-09-09T10:27:32;2.70;;;1.00;;
19889;SDS011;10107;51.198;6.824;2022-09-09T10:31:48;2.87;;;1.00;;
19889;SDS011;10107;51.198;6.824;2022-09-09T10:36:02;2.30;;;0.90;;
19889;SDS011;10107;51.198;6.824;2022-09-09T10:40:17;2.35;;;0.90;;
19889;SDS011;10107;51.198;6.824;2022-09-09T10:44:36;2.97;;;0.82;;
19889;SDS011;10107;51.198;6.824;2022-09-09T10:48:58;3.35;;;1.10;;
19889;SDS011;10107;51.198;6.824;2022-09-09T10:53:09;2.92;;;1.35;;
19889;SDS011;10107;51.198;6.824;2022-09-09T10:57:22;3.05;;;1.05;;
19889;SDS011;10107;51.198;6.824;2022-09-09T11:01:31;2.80;;;1.00;;
19889;SDS011;10107;51.198;6.824;2022-09-09T11:05:49;3.50;;;1.02;;
19889;SDS011;10107;51.198;6.824;2022-09-09T11:09:56;3.17;;;1.00;;
19889;SDS011;10107;51.198;6.824;2022-09-09T11:14:09;1.63;;;0.80;;
19889;SDS011;10107;51.198;6.824;2022-09-09T11:18:19;3.17;;;0.85;;
19889;SDS011;10107;51.198;6.824;2022-09-09T11:22:25;2.38;;;0.90;;
19889;SDS011;10107;51.198;6.824;2022-09-09T11:26:32;2.65;;;0.90;;
19889;SDS011;10107;51.198;6.824;2022-09-09T11:30:42;1.85;;;0.80;;
19889;SDS011;10107;51.198;6.824;2022-09-09T11:34:56;2.25;;;0.73;;
19889;SDS011;10107;51.198;6.824;2022-09-09T11:39:23;2.25;;;0.95;;
19889;SDS011;10107;51.198;6.824;2022-09-09T11:43:40;1.33;;;0.90;;
19889;SDS011;10107;51.198;6.824;2022-09-09T11:47:51;1.98;;;0.90;;
19889;SDS011;10107;51.198;6.824;2022-09-09T11:51:53;1.42;;;0.82;;
19889;SDS011;10107;51.198;6.824;2022-09-09T11:56:04;2.72;;;1.10;;
19889;SDS011;10107;51.198;6.824;2022-09-09T12:04:37;2.35;;;0.80;;
19889;SDS011;10107;51.198;6.824;2022-09-09T12:08:46;1.92;;;1.13;;
19889;SDS011;10107;51.198;6.824;2022-09-09T12:12:54;3.65;;;1.15;;
19889;SDS011;10107;51.198;6.824;2022-09-09T12:16:56;3.08;;;1.13;;
19889;SDS011;10107;51.198;6.824;2022-09-09T12:21:00;3.15;;;1.15;;
19889;SDS011;10107;51.198;6.824;2022-09-09T12:25:09;2.90;;;1.20;;
19889;SDS011;10107;51.198;6.824;2022-09-09T12:29:24;1.40;;;0.73;;
19889;SDS011;10107;51.198;6.824;2022-09-09T12:33:33;3.28;;;1.00;;
19889;SDS011;10107;51.198;6.824;2022-09-09T12:37:37;2.53;;;1.00;;
19889;SDS011;10107;51.198;6.824;2022-09-09T12:41:41;2.05;;;1.00;;
19889;SDS011;10107;51.198;6.824;2022-09-09T12:45:54;2.67;;;0.73;;
19889;SDS011;10107;51.198;6.824;2022-09-09T12:50:00;2.22;;;0.80;;
19889;SDS011;10107;51.198;6.824;2022-09-09T12:54:02;3.03;;;0.82;;
19889;SDS011;10107;51.198;6.824;2022-09-09T12:58:05;1.45;;;0.90;;
19889;SDS011;10107;51.198;6.824;2022-09-09T13:06:29;4.72;;;1.45;;
19889;SDS011;10107;51.198;6.824;2022-09-09T13:10:33;1.80;;;0.93;;
19889;SDS011;10107;51.198;6.824;2022-09-09T13:14:38;2.00;;;0.60;;
19889;SDS011;10107;51.198;6.824;2022-09-09T13:18:48;2.15;;;0.70;;
19889;SDS011;10107;51.198;6.824;2022-09-09T13:22:51;1.83;;;0.65;;
19889;SDS011;10107;51.198;6.824;2022-09-09T13:30:58;1.30;;;0.63;;
19889;SDS011;10107;51.198;6.824;2022-09-09T13:35:02;1.80;;;1.17;;
19889;SDS011;10107;51.198;6.824;2022-09-09T13:43:10;1.48;;;0.90;;
19889;SDS011;10107;51.198;6.824;2022-09-09T13:47:21;1.88;;;0.90;;
19889;SDS011;10107;51.198;6.824;2022-09-09T13:51:36;3.50;;;1.13;;
19889;SDS011;10107;51.198;6.824;2022-09-09T13:55:40;2.08;;;1.10;;
19889;SDS011;10107;51.198;6.824;2022-09-09T13:59:43;2.33;;;0.80;;
19889;SDS011;10107;51.198;6.824;2022-09-09T14:03:47;3.42;;;1.35;;
19889;SDS011;10107;51.198;6.824;2022-09-09T14:07:50;2.03;;;0.90;;
19889;SDS011;10107;51.198;6.824;2022-09-09T14:11:52;2.67;;;0.95;;
19889;SDS011;10107;51.198;6.824;2022-09-09T14:15:55;2.95;;;1.00;;
19889;SDS011;10107;51.198;6.824;2022-09-09T14:19:57;2.00;;;0.80;;
19889;SDS011;10107;51.198;6.824;2022-09-09T14:24:00;2.90;;;0.82;;
19889;SDS011;10107;51.198;6.824;2022-09-09T14:28:02;2.28;;;0.88;;
19889;SDS011;10107;51.198;6.824;2022-09-09T14:32:04;1.25;;;0.68;;
19889;SDS011;10107;51.198;6.824;2022-09-09T14:36:06;3.63;;;0.90;;
19889;SDS011;10107;51.198;6.824;2022-09-09T14:40:10;2.28;;;0.93;;
19889;SDS011;10107;51.198;6.824;2022-09-09T14:44:12;0.82;;;0.40;;
19889;SDS011;10107;51.198;6.824;2022-09-09T14:48:14;3.40;;;0.77;;
19889;SDS011;10107;51.198;6.824;2022-09-09T14:52:16;0.75;;;0.35;;
19889;SDS011;10107;51.198;6.824;2022-09-09T14:56:20;2.25;;;0.65;;
19889;SDS011;10107;51.198;6.824;2022-09-09T15:00:24;1.30;;;0.47;;
19889;SDS011;10107;51.198;6.824;2022-09-09T15:04:26;0.68;;;0.40;;
19889;SDS011;10107;51.198;6.824;2022-09-09T15:08:28;1.00;;;0.52;;
19889;SDS011;10107;51.198;6.824;2022-09-09T15:12:31;1.05;;;0.40;;
19889;SDS011;10107;51.198;6.824;2022-09-09T15:16:35;0.73;;;0.50;;
19889;SDS011;10107;51.198;6.824;2022-09-09T15:20:37;1.73;;;0.50;;
19889;SDS011;10107;51.198;6.824;2022-09-09T15:24:39;0.85;;;0.45;;
19889;SDS011;10107;51.198;6.824;2022-09-09T15:28:43;0.88;;;0.70;;
19889;SDS011;10107;51.198;6.824;2022-09-09T15:32:47;0.93;;;0.52;;
19889;SDS011;10107;51.198;6.824;2022-09-09T15:36:49;1.30;;;0.60;;
19889;SDS011;10107;51.198;6.824;2022-09-09T15:40:53;3.17;;;1.58;;
19889;SDS011;10107;51.198;6.824;2022-09-09T15:44:57;1.85;;;1.23;;
19889;SDS011;10107;51.198;6.824;2022-09-09T15:49:03;1.73;;;0.90;;
19889;SDS011;10107;51.198;6.824;2022-09-09T15:53:06;2.55;;;1.17;;
19889;SDS011;10107;51.198;6.824;2022-09-09T15:57:09;2.88;;;1.05;;
19889;SDS011;10107;51.198;6.824;2022-09-09T16:01:14;3.72;;;1.27;;
19889;SDS011;10107;51.198;6.824;2022-09-09T16:05:17;1.80;;;1.08;;
19889;SDS011;10107;51.198;6.824;2022-09-09T16:09:19;0.98;;;0.82;;
19889;SDS011;10107;51.198;6.824;2022-09-09T16:13:20;1.73;;;1.15;;
19889;SDS011;10107;51.198;6.824;2022-09-09T16:17:23;2.65;;;1.58;;
19889;SDS011;10107;51.198;6.824;2022-09-09T16:21:26;2.83;;;1.52;;
19889;SDS011;10107;51.198;6.824;2022-09-09T16:25:30;2.40;;;1.10;;
19889;SDS011;10107;51.198;6.824;2022-09-09T16:29:31;2.15;;;1.10;;
19889;SDS011;10107;51.198;6.824;2022-09-09T16:33:35;3.05;;;1.48;;
19889;SDS011;10107;51.198;6.824;2022-09-09T16:37:36;2.42;;;1.73;;
19889;SDS011;10107;51.198;6.824;2022-09-09T16:41:39;3.13;;;1.40;;
19889;SDS011;10107;51.198;6.824;2022-09-09T16:45:43;1.52;;;1.40;;
19889;SDS011;10107;51.198;6.824;2022-09-09T16:49:47;2.45;;;1.20;;
19889;SDS011;10107;51.198;6.824;2022-09-09T16:53:49;3.35;;;1.17;;
19889;SDS011;10107;51.198;6.824;2022-09-09T16:57:51;2.00;;;1.20;;
19889;SDS011;10107;51.198;6.824;2022-09-09T17:01:54;2.25;;;1.20;;
19889;SDS011;10107;51.198;6.824;2022-09-09T17:05:57;1.75;;;1.20;;
19889;SDS011;10107;51.198;6.824;2022-09-09T17:10:02;3.38;;;1.50;;
19889;SDS011;10107;51.198;6.824;2022-09-09T17:14:04;3.72;;;1.48;;
19889;SDS011;10107;51.198;6.824;2022-09-09T17:18:07;1.65;;;1.23;;
19889;SDS011;10107;51.198;6.824;2022-09-09T17:22:11;4.45;;;1.85;;
19889;SDS011;10107;51.198;6.824;2022-09-09T17:26:14;2.00;;;1.30;;
19889;SDS011;10107;51.198;6.824;2022-09-09T17:34:19;3.78;;;1.75;;
19889;SDS011;10107;51.198;6.824;2022-09-09T17:38:22;2.85;;;1.55;;
19889;SDS011;10107;51.198;6.824;2022-09-09T17:42:24;2.53;;;1.33;;
19889;SDS011;10107;51.198;6.824;2022-09-09T17:46:27;1.75;;;1.50;;
19889;SDS011;10107;51.198;6.824;2022-09-09T17:54:35;3.05;;;1.55;;
19889;SDS011;10107;51.198;6.824;2022-09-09T17:58:37;2.93;;;1.33;;
19889;SDS011;10107;51.198;6.824;2022-09-09T18:02:39;1.87;;;1.03;;
19889;SDS011;10107;51.198;6.824;2022-09-09T18:06:42;2.63;;;1.55;;
19889;SDS011;10107;51.198;6.824;2022-09-09T18:14:54;5.15;;;1.30;;
19889;SDS011;10107;51.198;6.824;2022-09-09T18:18:56;4.00;;;1.60;;
19889;SDS011;10107;51.198;6.824;2022-09-09T18:22:59;3.03;;;1.50;;
19889;SDS011;10107;51.198;6.824;2022-09-09T18:27:02;2.65;;;1.52;;
19889;SDS011;10107;51.198;6.824;2022-09-09T18:31:05;3.47;;;1.58;;
19889;SDS011;10107;51.198;6.824;2022-09-09T18:35:07;2.33;;;1.40;;
19889;SDS011;10107;51.198;6.824;2022-09-09T18:39:09;2.53;;;1.45;;
19889;SDS011;10107;51.198;6.824;2022-09-09T18:43:14;2.72;;;1.40;;
19889;SDS011;10107;51.198;6.824;2022-09-09T18:47:16;2.97;;;1.70;;
19889;SDS011;10107;51.198;6.824;2022-09-09T18:51:19;2.13;;;1.58;;
19889;SDS011;10107;51.198;6.824;2022-09-09T18:55:22;2.13;;;1.52;;
19889;SDS011;10107;51.198;6.824;2022-09-09T18:59:25;2.42;;;1.25;;
19889;SDS011;10107;51.198;6.824;2022-09-09T19:03:29;3.13;;;1.30;;
19889;SDS011;10107;51.198;6.824;2022-09-09T19:07:31;3.17;;;1.17;;
19889;SDS011;10107;51.198;6.824;2022-09-09T19:11:32;4.40;;;1.90;;
19889;SDS011;10107;51.198;6.824;2022-09-09T19:15:36;2.13;;;1.50;;
19889;SDS011;10107;51.198;6.824;2022-09-09T19:19:39;3.30;;;1.50;;
19889;SDS011;10107;51.198;6.824;2022-09-09T19:23:41;2.50;;;1.65;;
19889;SDS011;10107;51.198;6.824;2022-09-09T19:27:43;2.28;;;1.38;;
19889;SDS011;10107;51.198;6.824;2022-09-09T19:31:47;2.30;;;1.10;;
19889;SDS011;10107;51.198;6.824;2022-09-09T19:39:57;4.00;;;1.42;;
19889;SDS011;10107;51.198;6.824;2022-09-09T19:44:00;4.05;;;1.45;;
19889;SDS011;10107;51.198;6.824;2022-09-09T19:48:06;1.83;;;1.30;;
19889;SDS011;10107;51.198;6.824;2022-09-09T19:52:08;2.00;;;1.40;;
19889;SDS011;10107;51.198;6.824;2022-09-09T19:56:11;2.50;;;1.88;;
19889;SDS011;10107;51.198;6.824;2022-09-09T20:00:13;3.05;;;1.70;;
19889;SDS011;10107;51.198;6.824;2022-09-09T20:04:16;2.05;;;1.48;;
19889;SDS011;10107;51.198;6.824;2022-09-09T20:08:18;3.22;;;1.40;;
19889;SDS011;10107;51.198;6.824;2022-09-09T20:12:19;2.58;;;1.40;;
19889;SDS011;10107;51.198;6.824;2022-09-09T20:16:22;6.53;;;2.10;;
19889;SDS011;10107;51.198;6.824;2022-09-09T20:20:26;5.30;;;2.10;;
19889;SDS011;10107;51.198;6.824;2022-09-09T20:24:28;3.53;;;1.80;;
19889;SDS011;10107;51.198;6.824;2022-09-09T20:28:30;3.55;;;1.70;;
19889;SDS011;10107;51.198;6.824;2022-09-09T20:32:33;2.67;;;1.15;;
19889;SDS011;10107;51.198;6.824;2022-09-09T20:36:37;3.53;;;1.80;;
19889;SDS011;10107;51.198;6.824;2022-09-09T20:40:40;4.50;;;1.88;;
19889;SDS011;10107;51.198;6.824;2022-09-09T20:44:42;4.35;;;1.70;;
19889;SDS011;10107;51.198;6.824;2022-09-09T20:48:44;3.90;;;1.75;;
19889;SDS011;10107;51.198;6.824;2022-09-09T20:52:48;2.70;;;1.88;;
19889;SDS011;10107;51.198;6.824;2022-09-09T20:56:50;4.53;;;2.20;;
19889;SDS011;10107;51.198;6.824;2022-09-09T21:00:52;4.40;;;2.07;;
19889;SDS011;10107;51.198;6.824;2022-09-09T21:04:59;3.38;;;2.22;;
19889;SDS011;10107;51.198;6.824;2022-09-09T21:09:02;4.00;;;1.90;;
19889;SDS011;10107;51.198;6.824;2022-09-09T21:13:04;3.25;;;2.00;;
19889;SDS011;10107;51.198;6.824;2022-09-09T21:17:06;4.20;;;2.15;;
19889;SDS011;10107;51.198;6.824;2022-09-09T21:21:08;5.53;;;2.83;;
19889;SDS011;10107;51.198;6.824;2022-09-09T21:25:12;5.57;;;2.63;;
19889;SDS011;10107;51.198;6.824;2022-09-09T21:29:15;5.35;;;2.83;;
19889;SDS011;10107;51.198;6.824;2022-09-09T21:33:18;6.68;;;3.22;;
19889;SDS011;10107;51.198;6.824;2022-09-09T21:41:24;3.22;;;2.08;;
19889;SDS011;10107;51.198;6.824;2022-09-09T21:45:26;4.78;;;1.95;;
19889;SDS011;10107;51.198;6.824;2022-09-09T21:49:29;4.43;;;2.00;;
19889;SDS011;10107;51.198;6.824;2022-09-09T21:53:30;4.85;;;1.90;;
19889;SDS011;10107;51.198;6.824;2022-09-09T21:57:34;4.68;;;2.50;;
19889;SDS011;10107;51.198;6.824;2022-09-09T22:01:37;4.20;;;2.20;;
19889;SDS011;10107;51.198;6.824;2022-09-09T22:09:43;3.92;;;2.00;;
19889;SDS011;10107;51.198;6.824;2022-09-09T22:13:46;3.42;;;1.95;;
19889;SDS011;10107;51.198;6.824;2022-09-09T22:21:50;5.30;;;2.42;;
19889;SDS011;10107;51.198;6.824;2022-09-09T22:25:52;4.65;;;1.90;;
19889;SDS011;10107;51.198;6.824;2022-09-09T22:29:57;5.22;;;2.05;;
19889;SDS011;10107;51.198;6.824;2022-09-09T22:33:59;2.47;;;1.30;;
19889;SDS011;10107;51.198;6.824;2022-09-09T22:38:01;3.55;;;1.90;;
19889;SDS011;10107;51.198;6.824;2022-09-09T22:42:03;3.30;;;1.75;;
19889;SDS011;10107;51.198;6.824;2022-09-09T22:46:08;3.80;;;1.92;;
19889;SDS011;10107;51.198;6.824;2022-09-09T22:54:12;3.58;;;2.00;;
19889;SDS011;10107;51.198;6.824;2022-09-09T22:58:14;3.95;;;2.08;;
19889;SDS011;10107;51.198;6.824;2022-09-09T23:02:17;4.20;;;2.28;;
19889;SDS011;10107;51.198;6.824;2022-09-09T23:06:21;4.18;;;2.17;;
19889;SDS011;10107;51.198;6.824;2022-09-09T23:10:24;3.80;;;1.70;;
19889;SDS011;10107;51.198;6.824;2022-09-09T23:18:34;2.47;;;1.40;;
19889;SDS011;10107;51.198;6.824;2022-09-09T23:22:36;1.50;;;1.38;;
19889;SDS011;10107;51.198;6.824;2022-09-09T23:26:39;2.83;;;1.60;;
19889;SDS011;10107;51.198;6.824;2022-09-09T23:30:42;1.87;;;1.20;;
19889;SDS011;10107;51.198;6.824;2022-09-09T23:34:45;3.85;;;1.92;;
19889;SDS011;10107;51.198;6.824;2022-09-09T23:38:47;2.63;;;1.50;;
19889;SDS011;10107;51.198;6.824;2022-09-09T23:42:49;3.45;;;1.83;;
19889;SDS011;10107;51.198;6.824;2022-09-09T23:46:51;4.63;;;1.83;;
19889;SDS011;10107;51.198;6.824;2022-09-09T23:50:54;3.13;;;1.65;;
19889;SDS011;10107;51.198;6.824;2022-09-09T23:54:58;4.30;;;2.05;;
19889;SDS011;10107;51.198;6.824;2022-09-09T23:59:00;3.58;;;1.88;;
